x

Portland 12 Nm Southeast Of Portland,me (44007) Wave Buoy

10:50 - Mon 26th Jan 2015 All times are EST. -5 hours from GMT.

  • Sig Wave height 5.6ft
  • Swell Direction
  • Peak Period 5s
  • Average Period 5s
  • Wind
    31mph, 38mph gusts
  • Sea Temp 39°f
  • Luft Temp 20°f
  • Sea Pressure 1017mb
  • Portland 12 Nm Southeast Of Portland,me
  • Portland 12 Nm Southeast Of Portland,me

More Historic Weather Station data

Upgrade to MSW Pro to gain access to the past 30 days of data for over 8000 Wavebouys and Weather Stations around the globe.

Join Pro

Comparision Forecast

View Surf forecast
   
Mo 01/26 10:50 5.5ft 5s 5s 31 38 mph 1017mb 39f 20f
9:50 5ft 5s 5s 29 36 mph 1018.5mb 40f 21f
8:50 4.5ft 5s 5s 27 31 mph 1019.7mb 40f 21f
7:50 4ft 11s 4s 22 29 mph 1020.8mb 40f 21f
6:50 3.5ft 12s 4s 22 27 mph 1020.8mb 40f 21f
5:50 3.5ft 11s 4s 20 25 mph 1021.1mb 40f 22f
4:50 3ft 11s 4s 20 27 mph 1020.4mb 40f 23f
3:50 2.5ft 11s 4s 18 22 mph 1020.4mb 40f 21f
2:50 2.5ft 12s 4s 13 18 mph 1020.9mb 40f 21f
1:50 2.5ft 11s 4s 13 18 mph 1020mb 40f 20f
12:50 2.5ft 11s 4s 13 20 mph 1021.2mb 40f 19f
11:50 2.5ft 13s 5s 13 18 mph 1022mb 40f 18f
10:50 2.5ft 12s 5s 9 13 mph 1022.9mb 40f 17f
9:50 2.5ft 12s 5s 13 18 mph 1022.5mb 40f 15f
8:50 2.5ft 12s 5s 18 22 mph 1022mb 40f 14f
7:50 2.5ft 13s 5s 13 18 mph 1021.7mb 40f 13f
6:50 2.5ft 11s 4s 18 20 mph 1020.9mb 39f 13f
5:50 2.5ft 13s 4s 16 20 mph 1020mb 39f 15f
4:50 2.5ft 11s 5s 16 20 mph 1019.4mb 39f 14f
3:50 2.5ft 12s 4s 16 20 mph 1018.6mb 39f 14f
2:50 2.5ft 12s 5s 16 20 mph 1018.5mb 39f 13f
1:50 2.5ft 12s 5s 13 18 mph 1018.6mb 39f 14f
12:50 2.5ft 13s 5s 20 22 mph 1017.2mb 39f 15f
So 01/25 11:50 3.5ft 13s 5s 20 25 mph 1016.7mb 39f 16f
10:50 3.5ft 12s 5s 22 27 mph 1016.1mb 39f 17f
9:50 3.5ft 13s 6s 18 22 mph 1015mb 40f 18f
8:50 4.5ft 13s 6s 13 20 mph 1013.8mb 40f 21f
7:50 3.5ft 13s 5s 18 22 mph 1012.3mb 40f 22f
6:50 4.5ft 13s 6s 18 22 mph 1011mb 40f 24f
5:50 5ft 12s 6s 18 22 mph 1009mb 40f 26f
4:50 4.5ft 12s 5s 20 25 mph 1006.5mb 40f 28f
3:50 4.5ft 13s 6s 22 27 mph 1004.3mb 40f 30f
2:50 4.5ft 13s 5s 22 27 mph 1002.8mb 40f 32f
1:50 4.5ft 14s 5s 22 31 mph 1001.3mb 40f 33f
12:50 4.5ft 14s 5s 22 27 mph 1000.4mb 40f 33f
11:50 4.5ft 14s 5s 20 25 mph 999.9mb 40f 34f
10:50 5ft 14s 6s 18 22 mph 999mb 40f 36f
9:50 5.5ft 14s 6s 22 25 mph 997.5mb 40f 36f
8:50 5.5ft 14s 7s 25 29 mph 996.2mb 40f 36f
7:50 5ft 13s 6s 25 29 mph 995.2mb 40f 36f
6:50 5ft 12s 6s 25 29 mph 994.3mb 40f 36f
5:50 5ft 12s 7s 25 31 mph 992.8mb 40f 36f
4:50 5ft 11s 6s 27 31 mph 991.6mb 41f 35f
3:50 4ft 11s 6s 22 27 mph 990.6mb 40f 35f
2:50 3ft 13s 6s 18 22 mph 990.2mb 40f 33f
1:50 2.5ft 7s 4s 16 18 mph 989.2mb 40f 33f
12:50 2ft 8s 4s 16 18 mph 988.2mb 40f 34f
Sa 01/24 11:50 2ft 5s 4s 13 18 mph 987.7mb 40f 33f
10:50 2ft 9s 4s 18 22 mph 987.7mb 40f 33f
9:50 2.5ft 5s 4s 16 18 mph 987.4mb 41f 31f
8:50 2.5ft 3s 4s 22 27 mph 986.6mb 41f 31f
7:50 2.5ft 3s 3s 25 29 mph 986.9mb 40f 30f
6:50 2.5ft 3s 4s 25 31 mph 987.6mb 41f 30f
5:50 2.5ft 3s 3s 25 29 mph 987mb 40f 31f
4:50 2.5ft 4s 3s 25 27 mph 988.3mb 40f 31f
3:50 2ft 3s 3s 20 25 mph 990.9mb 40f 31f
2:50 2ft 3s 3s 20 25 mph 993.3mb 40f 31f
1:50 2ft 6s 4s 18 22 mph 994.6mb 40f 31f
12:50 2ft 6s 5s 13 18 mph 997.2mb 40f 31f
11:50 2.5ft 6s 5s 9
mph
999.7mb 40f 31f
10:50 3ft 5s 5s 9 11 mph 1002.3mb 40f 31f
9:50 3.5ft 5s 4s 11 13 mph 1004.2mb 40f 31f
8:50 3.5ft 5s 4s 20 25 mph 1005.7mb 40f 32f
7:50 3.5ft 5s 4s 20 22 mph 1006.4mb 40f 34f
6:50 3ft 5s 4s 22 25 mph 1007.4mb 40f 34f
5:50 3.5ft 6s 5s 20 22 mph 1007mb 39f 33f
4:50 3.5ft 6s 4s 18 20 mph 1007mb 40f 33f
3:50 3.5ft 6s 5s 18 22 mph 1007.8mb 40f 33f
2:50 3.5ft 5s 4s 22 27 mph 1008.7mb 40f 33f
1:50 3.5ft 5s 4s 22 27 mph 1009.7mb 40f 32f
12:50 3.5ft 5s 4s 20 25 mph 1010.1mb 40f 32f
Fr 01/23 11:50 3.5ft 11s 4s 25 29 mph 1011.3mb 40f 33f
10:50 4ft 5s 4s 22 29 mph 1011.9mb 40f 34f
9:50 3.5ft 11s 4s 25 29 mph 1012.8mb 40f 35f
8:50 3.5ft 11s 5s 22 27 mph 1013.7mb 40f 35f
7:50 3.5ft 10s 5s 20 25 mph 1015mb 39f 35f
6:50 3ft 10s 5s 18 22 mph 1015.6mb 39f 35f
5:50 3.5ft 10s 6s 16 20 mph 1015.9mb 39f 35f
4:50 3.5ft 10s 8s 16 18 mph 1016.3mb 40f 34f
3:50 3ft 10s 7s 9 13 mph 1016.8mb 40f 33f
2:50 3ft 11s 7s 9 13 mph 1017.4mb 40f 32f
1:50 2.5ft 11s 7s 7 13 mph 1018.2mb 40f 31f
12:50 2.5ft 12s 7s 7 11 mph 1019.3mb 40f 30f
11:50 3ft 10s 7s 9 11 mph 1020.5mb 40f 29f
10:50 3.5ft 9s 7s 9 13 mph 1021.8mb 40f 28f
9:50 3ft 10s 7s 11 13 mph 1022.5mb 40f 27f
8:50 3.5ft 9s 7s 11 13 mph 1023mb 40f 26f
7:50 3ft 10s 8s 11 18 mph 1023.3mb 40f 27f
6:50 2.5ft 9s 8s 7 9 mph 1023.3mb 40f 26f
5:50 2.5ft 9s 7s 9 11 mph 1023.4mb 40f 26f
4:50 2ft 10s 5s 13 18 mph 1023.1mb 40f 26f